Commercial Point, Ohio
Current Conditions -  °F | °C
As of 2:15 PM on Thursday 18 Dec 2014 (Local Time) from KLCK Reporting Station
Overcast Overcast  
Wind Chill: 28°   Ceiling: 1900
Heat Index: 28°   Visibility: 10mi
Dew Point: 21°   Wind: 3mph
Humidity: 74%   Direction: 280°W
Pressure: 30.21"   Gusts: NA
Location:  39.77°N, 83.06°W
Report Text: KLCK 181915Z AUTO 28003KT 10SM OVC019 M02/M06 A3021 RMK AO2 T10211062
Loading
Personal Weather Stations






























Interactive Weather Map New forecast layout! Learn more

10-Day Weather Forecast

Advertisements
Track Severe Weather on mobile